Time,TemperatureF,DewpointF,PressureIn,WindDirection,WindDirectionDegrees,WindSpeedMPH,WindSpeedGustMPH,Humidity,HourlyPrecipIn,Conditions,Clouds,dailyrainin,SoftwareType,DateUTC
2013-02-23 00:00:00,39.0,38.2,30.16,NNE,28,0.0,0.0,97,0.00,,---,0.00,VWS V14.00,2013-02-23 05:00:00,
2013-02-23 00:05:00,39.0,38.2,30.14,NNE,28,0.0,2.0,97,0.00,,---,0.00,VWS V14.00,2013-02-23 05:05:00,
2013-02-23 00:10:00,39.0,38.2,30.13,NNE,28,0.0,0.0,97,0.00,,---,0.00,VWS V14.00,2013-02-23 05:10:00,
2013-02-23 00:15:00,39.0,38.2,30.13,ENE,74,0.0,0.0,97,0.00,,---,0.00,VWS V14.00,2013-02-23 05:15:00,
2013-02-23 00:20:00,39.0,38.2,30.12,ENE,74,0.0,1.0,97,0.01,,---,0.01,VWS V14.00,2013-02-23 05:20:00,
2013-02-23 00:25:00,39.0,38.2,30.11,ENE,75,0.0,4.0,97,0.01,,---,0.01,VWS V14.00,2013-02-23 05:25:00,
2013-02-23 00:30:00,39.0,38.2,30.12,ENE,75,0.0,0.0,97,0.01,,---,0.01,VWS V14.00,2013-02-23 05:30:00,
2013-02-23 00:35:00,39.0,38.2,30.12,ENE,75,2.0,2.0,97,0.01,,---,0.01,VWS V14.00,2013-02-23 05:35:00,
2013-02-23 00:40:00,38.9,38.1,30.12,ENE,76,3.0,3.0,97,0.01,,---,0.01,VWS V14.00,2013-02-23 05:40:00,
2013-02-23 00:45:00,39.0,38.2,30.10,ENE,69,2.0,5.0,97,0.02,,---,0.02,VWS V14.00,2013-02-23 05:45:00,
2013-02-23 00:50:00,38.9,38.1,30.10,East,80,4.0,6.0,97,0.02,,---,0.02,VWS V14.00,2013-02-23 05:50:00,
2013-02-23 00:55:00,38.9,38.1,30.10,NE,40,0.0,1.0,97,0.02,,---,0.02,VWS V14.00,2013-02-23 05:55:00,
2013-02-23 01:00:00,38.9,38.1,30.10,ENE,57,0.0,0.0,97,0.02,,---,0.02,VWS V14.00,2013-02-23 06:00:00,
2013-02-23 01:05:00,38.9,38.1,30.09,ENE,57,0.0,1.0,97,0.02,,---,0.02,VWS V14.00,2013-02-23 06:05:00,
2013-02-23 01:10:00,38.9,38.1,30.10,ENE,57,0.0,0.0,97,0.03,,---,0.03,VWS V14.00,2013-02-23 06:10:00,
2013-02-23 01:15:00,38.9,38.1,30.10,ENE,57,0.0,0.0,97,0.03,,---,0.03,VWS V14.00,2013-02-23 06:15:00,
2013-02-23 01:20:00,38.9,38.1,30.10,ENE,57,1.0,2.0,97,0.02,,---,0.03,VWS V14.00,2013-02-23 06:20:00,
2013-02-23 01:25:00,38.9,38.1,30.09,ENE,60,1.0,2.0,97,0.02,,---,0.03,VWS V14.00,2013-02-23 06:25:00,
2013-02-23 01:30:00,38.9,38.1,30.09,ENE,76,3.0,4.0,97,0.02,,---,0.03,VWS V14.00,2013-02-23 06:30:00,
2013-02-23 01:35:00,38.9,38.1,30.08,ENE,76,2.0,2.0,97,0.02,,---,0.03,VWS V14.00,2013-02-23 06:35:00,
2013-02-23 01:40:00,38.9,38.1,30.07,ENE,76,0.0,2.0,97,0.03,,---,0.04,VWS V14.00,2013-02-23 06:40:00,
2013-02-23 01:45:00,38.9,38.1,30.07,ENE,76,2.0,2.0,97,0.02,,---,0.04,VWS V14.00,2013-02-23 06:45:00,
2013-02-23 01:50:00,38.8,38.0,30.07,ENE,74,0.0,2.0,97,0.02,,---,0.04,VWS V14.00,2013-02-23 06:50:00,
2013-02-23 01:55:00,38.8,38.0,30.06,ENE,74,0.0,0.0,97,0.02,,---,0.04,VWS V14.00,2013-02-23 06:55:00,
2013-02-23 02:00:00,38.8,38.0,30.06,East,88,2.0,4.0,97,0.02,,---,0.04,VWS V14.00,2013-02-23 07:00:00,
2013-02-23 02:05:00,38.7,37.9,30.05,ENE,67,6.0,7.0,97,0.02,,---,0.04,VWS V14.00,2013-02-23 07:05:00,
2013-02-23 02:10:00,38.7,37.9,30.05,NE,34,0.0,0.0,97,0.01,,---,0.04,VWS V14.00,2013-02-23 07:10:00,
2013-02-23 02:15:00,38.7,37.9,30.05,NE,51,4.0,4.0,97,0.01,,---,0.04,VWS V14.00,2013-02-23 07:15:00,
2013-02-23 02:20:00,38.7,37.9,30.04,NE,54,0.0,0.0,97,0.01,,---,0.04,VWS V14.00,2013-02-23 07:20:00,
2013-02-23 02:25:00,38.8,38.0,30.05,NE,36,0.0,4.0,97,0.01,,---,0.04,VWS V14.00,2013-02-23 07:25:00,
2013-02-23 02:30:00,38.7,37.9,30.05,NE,39,3.0,4.0,97,0.01,,---,0.04,VWS V14.00,2013-02-23 07:30:00,
2013-02-23 02:35:00,38.7,37.9,30.05,NE,38,0.0,2.0,97,0.01,,---,0.04,VWS V14.00,2013-02-23 07:35:00,
2013-02-23 02:40:00,38.7,37.9,30.06,NNE,31,0.0,0.0,97,0.00,,---,0.04,VWS V14.00,2013-02-23 07:40:00,
2013-02-23 02:45:00,38.7,37.9,30.06,NNE,31,0.0,0.0,97,0.00,,---,0.04,VWS V14.00,2013-02-23 07:45:00,
2013-02-23 02:50:00,38.7,37.9,30.06,North,11,0.0,1.0,97,0.01,,---,0.05,VWS V14.00,2013-02-23 07:50:00,
2013-02-23 02:55:00,38.7,37.9,30.07,ENE,57,0.0,0.0,97,0.01,,---,0.05,VWS V14.00,2013-02-23 07:55:00,
2013-02-23 03:00:00,38.7,37.9,30.08,ENE,57,0.0,1.0,97,0.02,,---,0.06,VWS V14.00,2013-02-23 08:00:00,
2013-02-23 03:05:00,38.8,38.0,30.07,ENE,57,0.0,0.0,97,0.02,,---,0.06,VWS V14.00,2013-02-23 08:05:00,
2013-02-23 03:10:00,38.8,38.0,30.06,ENE,57,0.0,0.0,97,0.03,,---,0.07,VWS V14.00,2013-02-23 08:10:00,
2013-02-23 03:15:00,38.8,38.0,30.06,ENE,57,0.0,1.0,97,0.03,,---,0.07,VWS V14.00,2013-02-23 08:15:00,
2013-02-23 03:20:00,38.8,38.0,30.04,ENE,57,3.0,3.0,97,0.04,,---,0.08,VWS V14.00,2013-02-23 08:20:00,
2013-02-23 03:25:00,38.8,38.0,30.04,ENE,58,0.0,2.0,97,0.04,,---,0.08,VWS V14.00,2013-02-23 08:25:00,
2013-02-23 03:30:00,38.8,38.0,30.04,ENE,57,3.0,3.0,97,0.04,,---,0.08,VWS V14.00,2013-02-23 08:30:00,
2013-02-23 03:35:00,38.8,38.0,30.04,ENE,59,0.0,0.0,97,0.05,,---,0.09,VWS V14.00,2013-02-23 08:35:00,
2013-02-23 03:40:00,38.8,38.0,30.03,ENE,59,0.0,0.0,97,0.05,,---,0.09,VWS V14.00,2013-02-23 08:40:00,
2013-02-23 03:45:00,38.7,37.9,30.02,ENE,61,3.0,3.0,97,0.06,,---,0.10,VWS V14.00,2013-02-23 08:45:00,
2013-02-23 03:50:00,38.7,37.9,30.01,ENE,63,3.0,3.0,97,0.05,,---,0.10,VWS V14.00,2013-02-23 08:50:00,
2013-02-23 03:55:00,38.7,37.9,30.01,East,86,0.0,4.0,97,0.05,,---,0.10,VWS V14.00,2013-02-23 08:55:00,
2013-02-23 04:00:00,38.6,37.8,30.01,ENE,68,2.0,3.0,97,0.06,,---,0.11,VWS V14.00,2013-02-23 09:00:00,
2013-02-23 04:05:00,38.5,37.7,30.00,ENE,71,0.0,1.0,97,0.05,,---,0.11,VWS V14.00,2013-02-23 09:05:00,
2013-02-23 04:10:00,38.5,37.7,30.01,ENE,78,0.0,2.0,97,0.05,,---,0.12,VWS V14.00,2013-02-23 09:10:00,
2013-02-23 04:15:00,38.4,37.6,30.01,ENE,70,1.0,1.0,97,0.06,,---,0.13,VWS V14.00,2013-02-23 09:15:00,
2013-02-23 04:20:00,38.4,37.6,30.02,ENE,59,1.0,3.0,97,0.06,,---,0.13,VWS V14.00,2013-02-23 09:20:00,
2013-02-23 04:25:00,38.4,37.6,30.01,NE,42,0.0,5.0,97,0.06,,---,0.14,VWS V14.00,2013-02-23 09:25:00,
2013-02-23 04:30:00,38.4,37.6,30.01,ENE,58,0.0,0.0,97,0.07,,---,0.15,VWS V14.00,2013-02-23 09:30:00,
2013-02-23 04:35:00,38.4,37.6,30.00,ENE,73,4.0,5.0,97,0.06,,---,0.15,VWS V14.00,2013-02-23 09:35:00,
2013-02-23 04:40:00,38.4,37.6,30.00,ENE,76,4.0,6.0,97,0.06,,---,0.15,VWS V14.00,2013-02-23 09:40:00,
2013-02-23 04:45:00,38.3,37.5,30.00,NE,49,0.0,2.0,97,0.05,,---,0.15,VWS V14.00,2013-02-23 09:45:00,
2013-02-23 04:50:00,38.3,37.5,29.99,ENE,62,0.0,4.0,97,0.05,,---,0.15,VWS V14.00,2013-02-23 09:50:00,
2013-02-23 04:55:00,38.3,37.5,29.99,ENE,62,1.0,1.0,97,0.05,,---,0.15,VWS V14.00,2013-02-23 09:55:00,
2013-02-23 05:00:00,38.3,37.5,29.98,NNE,28,0.0,0.0,97,0.04,,---,0.15,VWS V14.00,2013-02-23 10:00:00,
2013-02-23 05:05:00,38.3,37.5,29.98,NE,34,2.0,5.0,97,0.04,,---,0.15,VWS V14.00,2013-02-23 10:05:00,
2013-02-23 05:10:00,38.3,37.5,29.97,ENE,61,4.0,4.0,97,0.04,,---,0.16,VWS V14.00,2013-02-23 10:10:00,
2013-02-23 05:15:00,38.2,37.4,29.96,ESE,104,0.0,1.0,97,0.04,,---,0.16,VWS V14.00,2013-02-23 10:15:00,
2013-02-23 05:20:00,38.3,37.5,29.97,ENE,76,1.0,4.0,97,0.03,,---,0.16,VWS V14.00,2013-02-23 10:20:00,
2013-02-23 05:25:00,38.2,37.4,29.97,ENE,63,4.0,5.0,97,0.02,,---,0.16,VWS V14.00,2013-02-23 10:25:00,
2013-02-23 05:30:00,38.2,37.4,29.98,ENE,66,4.0,4.0,97,0.02,,---,0.16,VWS V14.00,2013-02-23 10:30:00,
2013-02-23 05:35:00,38.2,37.4,29.99,ENE,61,2.0,4.0,97,0.02,,---,0.17,VWS V14.00,2013-02-23 10:35:00,
2013-02-23 05:40:00,38.2,37.4,30.00,ENE,57,0.0,5.0,97,0.02,,---,0.17,VWS V14.00,2013-02-23 10:40:00,
2013-02-23 05:45:00,38.2,37.4,29.99,East,88,2.0,2.0,97,0.03,,---,0.18,VWS V14.00,2013-02-23 10:45:00,
2013-02-23 05:50:00,38.2,37.4,29.99,ENE,67,2.0,2.0,97,0.04,,---,0.19,VWS V14.00,2013-02-23 10:50:00,
2013-02-23 05:55:00,38.2,37.4,29.99,ENE,67,0.0,3.0,97,0.06,,---,0.21,VWS V14.00,2013-02-23 10:55:00,
2013-02-23 06:00:00,38.2,37.4,29.98,East,89,1.0,5.0,97,0.06,,---,0.21,VWS V14.00,2013-02-23 11:00:00,
2013-02-23 06:05:00,38.2,37.4,29.98,ENE,62,0.0,0.0,97,0.07,,---,0.22,VWS V14.00,2013-02-23 11:05:00,
2013-02-23 06:10:00,38.2,37.4,29.99,ENE,63,1.0,3.0,97,0.06,,---,0.22,VWS V14.00,2013-02-23 11:10:00,
2013-02-23 06:15:00,38.2,37.4,29.99,NE,39,2.0,6.0,97,0.07,,---,0.23,VWS V14.00,2013-02-23 11:15:00,
2013-02-23 06:20:00,38.2,37.4,29.98,ENE,71,2.0,3.0,97,0.07,,---,0.23,VWS V14.00,2013-02-23 11:20:00,
2013-02-23 06:25:00,38.2,37.4,29.97,NNE,18,0.0,2.0,97,0.08,,---,0.24,VWS V14.00,2013-02-23 11:25:00,
2013-02-23 06:30:00,38.2,37.4,29.97,ENE,78,0.0,0.0,97,0.08,,---,0.24,VWS V14.00,2013-02-23 11:30:00,
2013-02-23 06:35:00,38.2,37.4,29.96,ENE,63,3.0,3.0,97,0.07,,---,0.24,VWS V14.00,2013-02-23 11:35:00,
2013-02-23 06:40:00,38.3,37.5,29.96,East,82,5.0,5.0,97,0.07,,---,0.24,VWS V14.00,2013-02-23 11:40:00,
2013-02-23 06:45:00,38.2,37.4,29.97,NE,55,0.0,1.0,97,0.06,,---,0.24,VWS V14.00,2013-02-23 11:45:00,
2013-02-23 06:50:00,38.3,37.5,29.97,ENE,71,2.0,2.0,97,0.05,,---,0.24,VWS V14.00,2013-02-23 11:50:00,
2013-02-23 06:55:00,38.3,37.5,29.98,ENE,59,0.0,0.0,97,0.03,,---,0.24,VWS V14.00,2013-02-23 11:55:00,
2013-02-23 07:00:00,38.4,37.6,29.98,NE,56,0.0,0.0,97,0.03,,---,0.24,VWS V14.00,2013-02-23 12:00:00,
2013-02-23 07:05:00,38.4,37.6,30.00,NNE,31,3.0,3.0,97,0.02,,---,0.24,VWS V14.00,2013-02-23 12:05:00,
2013-02-23 07:10:00,38.4,37.6,30.00,NNW,342,4.0,4.0,97,0.02,,---,0.24,VWS V14.00,2013-02-23 12:10:00,
2013-02-23 07:15:00,38.4,37.6,29.99,ESE,104,0.0,1.0,97,0.02,,---,0.25,VWS V14.00,2013-02-23 12:15:00,
2013-02-23 07:20:00,38.5,37.7,29.99,ESE,104,0.0,0.0,97,0.02,,---,0.25,VWS V14.00,2013-02-23 12:20:00,
2013-02-23 07:25:00,38.5,37.7,30.00,NE,44,0.0,3.0,97,0.01,,---,0.25,VWS V14.00,2013-02-23 12:25:00,
2013-02-23 07:30:00,38.5,37.7,29.99,NNE,27,0.0,0.0,97,0.01,,---,0.25,VWS V14.00,2013-02-23 12:30:00,
2013-02-23 07:35:00,38.5,37.7,29.99,East,82,4.0,4.0,97,0.01,,---,0.25,VWS V14.00,2013-02-23 12:35:00,
2013-02-23 07:40:00,38.6,37.8,29.98,East,89,4.0,4.0,97,0.01,,---,0.25,VWS V14.00,2013-02-23 12:40:00,
2013-02-23 07:45:00,38.6,37.8,29.98,ENE,74,3.0,4.0,97,0.01,,---,0.25,VWS V14.00,2013-02-23 12:45:00,
2013-02-23 07:50:00,38.5,37.7,29.98,East,90,2.0,4.0,97,0.02,,---,0.26,VWS V14.00,2013-02-23 12:50:00,
2013-02-23 07:55:00,38.6,37.8,29.99,East,90,0.0,0.0,97,0.02,,---,0.26,VWS V14.00,2013-02-23 12:55:00,
2013-02-23 08:00:00,38.6,37.8,29.99,ENE,78,4.0,5.0,97,0.02,,---,0.26,VWS V14.00,2013-02-23 13:00:00,
2013-02-23 08:05:00,38.6,37.8,29.99,ENE,78,0.0,1.0,97,0.02,,---,0.26,VWS V14.00,2013-02-23 13:05:00,
2013-02-23 08:11:00,38.7,37.9,29.99,ENE,78,2.0,2.0,97,0.02,,---,0.26,VWS V14.00,2013-02-23 13:11:00,
2013-02-23 08:16:00,38.7,37.9,29.99,ENE,63,1.0,5.0,97,0.01,,---,0.26,VWS V14.00,2013-02-23 13:16:00,
2013-02-23 08:21:00,38.7,37.9,30.00,ENE,69,0.0,0.0,97,0.01,,---,0.26,VWS V14.00,2013-02-23 13:21:00,
2013-02-23 08:26:00,38.7,37.9,30.00,NE,38,0.0,0.0,97,0.02,,---,0.27,VWS V14.00,2013-02-23 13:26:00,
2013-02-23 08:31:00,38.8,38.0,29.99,ENE,57,0.0,1.0,97,0.02,,---,0.27,VWS V14.00,2013-02-23 13:31:00,
2013-02-23 08:36:00,38.8,38.0,30.00,East,90,0.0,0.0,97,0.02,,---,0.27,VWS V14.00,2013-02-23 13:36:00,
2013-02-23 08:41:00,38.9,38.1,30.00,East,90,0.0,0.0,97,0.03,,---,0.28,VWS V14.00,2013-02-23 13:41:00,
2013-02-23 08:46:00,38.9,38.1,30.01,East,90,2.0,2.0,97,0.03,,---,0.28,VWS V14.00,2013-02-23 13:46:00,
2013-02-23 08:51:00,38.9,38.1,30.01,East,90,0.0,0.0,97,0.02,,---,0.28,VWS V14.00,2013-02-23 13:51:00,
2013-02-23 08:56:00,38.9,38.1,30.01,East,90,0.0,0.0,97,0.02,,---,0.28,VWS V14.00,2013-02-23 13:56:00,
2013-02-23 09:01:00,39.0,38.2,30.01,East,90,0.0,1.0,97,0.03,,---,0.29,VWS V14.00,2013-02-23 14:01:00,
2013-02-23 09:06:00,39.0,38.2,30.01,East,90,0.0,0.0,97,0.04,,---,0.30,VWS V14.00,2013-02-23 14:06:00,
2013-02-23 09:11:00,39.1,38.3,30.00,East,90,0.0,0.0,97,0.04,,---,0.30,VWS V14.00,2013-02-23 14:11:00,
2013-02-23 09:16:00,39.1,38.3,30.00,East,80,0.0,0.0,97,0.04,,---,0.30,VWS V14.00,2013-02-23 14:16:00,
2013-02-23 09:21:00,39.2,38.7,30.00,ENE,69,1.0,1.0,98,0.05,,---,0.31,VWS V14.00,2013-02-23 14:21:00,
2013-02-23 09:26:00,39.3,38.8,30.01,ENE,71,0.0,0.0,98,0.04,,---,0.31,VWS V14.00,2013-02-23 14:26:00,
2013-02-23 09:31:00,39.3,38.8,30.00,ENE,62,3.0,3.0,98,0.04,,---,0.31,VWS V14.00,2013-02-23 14:31:00,
2013-02-23 09:36:00,39.4,38.9,29.99,ENE,60,1.0,2.0,98,0.04,,---,0.31,VWS V14.00,2013-02-23 14:36:00,
2013-02-23 09:41:00,39.5,38.7,29.99,NE,40,0.0,3.0,97,0.04,,---,0.32,VWS V14.00,2013-02-23 14:41:00,
2013-02-23 09:46:00,39.5,38.7,29.99,ENE,65,0.0,1.0,97,0.04,,---,0.32,VWS V14.00,2013-02-23 14:46:00,
2013-02-23 09:51:00,39.6,38.8,29.98,ENE,69,4.0,5.0,97,0.04,,---,0.32,VWS V14.00,2013-02-23 14:51:00,
2013-02-23 09:56:00,39.6,38.8,29.98,ENE,60,0.0,0.0,97,0.05,,---,0.33,VWS V14.00,2013-02-23 14:56:00,
2013-02-23 10:01:00,39.7,38.9,29.98,ENE,63,3.0,3.0,97,0.04,,---,0.33,VWS V14.00,2013-02-23 15:01:00,
2013-02-23 10:05:00,39.8,39.3,29.98,NNE,24,2.0,3.0,98,0.03,,---,0.33,VWS V14.00,2013-02-23 15:05:00,
2013-02-23 10:10:00,40.0,39.5,29.98,ENE,69,2.0,4.0,98,0.03,,---,0.33,VWS V14.00,2013-02-23 15:10:00,
2013-02-23 10:15:00,40.0,39.5,29.98,NE,37,2.0,2.0,98,0.03,,---,0.33,VWS V14.00,2013-02-23 15:15:00,
2013-02-23 10:20:00,40.1,39.6,29.97,ENE,71,4.0,4.0,98,0.02,,---,0.33,VWS V14.00,2013-02-23 15:20:00,
2013-02-23 10:25:00,40.2,39.7,29.97,ENE,63,4.0,5.0,98,0.02,,---,0.33,VWS V14.00,2013-02-23 15:25:00,
2013-02-23 10:30:00,40.3,39.8,29.97,ENE,63,0.0,0.0,98,0.02,,---,0.33,VWS V14.00,2013-02-23 15:30:00,
2013-02-23 10:35:00,40.4,39.9,29.97,East,79,2.0,4.0,98,0.02,,---,0.33,VWS V14.00,2013-02-23 15:35:00,
2013-02-23 10:40:00,40.4,39.9,29.97,NE,43,4.0,5.0,98,0.01,,---,0.33,VWS V14.00,2013-02-23 15:40:00,
2013-02-23 10:46:00,40.5,40.0,29.97,NE,40,0.0,5.0,98,0.01,,---,0.33,VWS V14.00,2013-02-23 15:46:00,
2013-02-23 10:50:00,40.5,40.0,29.97,ENE,63,3.0,3.0,98,0.01,,---,0.33,VWS V14.00,2013-02-23 15:50:00,
2013-02-23 10:55:00,40.6,40.1,29.97,ENE,63,0.0,3.0,98,0.00,,---,0.33,VWS V14.00,2013-02-23 15:55:00,
2013-02-23 11:00:00,40.7,40.2,29.98,NNE,29,0.0,2.0,98,0.00,,---,0.33,VWS V14.00,2013-02-23 16:00:00,
2013-02-23 11:05:00,40.8,40.3,29.98,ENE,65,0.0,1.0,98,0.00,,---,0.33,VWS V14.00,2013-02-23 16:05:00,
2013-02-23 11:10:00,40.8,40.3,29.98,ENE,76,0.0,0.0,98,0.00,,---,0.33,VWS V14.00,2013-02-23 16:10:00,
2013-02-23 11:15:00,40.9,40.1,29.99,ENE,76,0.0,0.0,97,0.00,,---,0.33,VWS V14.00,2013-02-23 16:15:00,
2013-02-23 11:20:00,41.0,40.2,30.00,NE,34,2.0,2.0,97,0.00,,---,0.33,VWS V14.00,2013-02-23 16:20:00,
2013-02-23 11:25:00,41.1,40.6,30.00,NE,47,0.0,0.0,98,0.00,,---,0.33,VWS V14.00,2013-02-23 16:25:00,
2013-02-23 11:30:00,41.1,40.6,30.00,ENE,67,0.0,0.0,98,0.00,,---,0.33,VWS V14.00,2013-02-23 16:30:00,
2013-02-23 11:35:00,41.2,40.7,29.99,East,79,6.0,7.0,98,0.00,,---,0.33,VWS V14.00,2013-02-23 16:35:00,
2013-02-23 11:40:00,41.2,40.4,30.00,NE,51,0.0,1.0,97,0.00,,---,0.33,VWS V14.00,2013-02-23 16:40:00,
2013-02-23 11:45:00,41.1,40.3,29.99,ENE,60,5.0,5.0,97,0.00,,---,0.33,VWS V14.00,2013-02-23 16:45:00,
2013-02-23 11:50:00,41.1,40.3,29.99,ENE,58,0.0,0.0,97,0.00,,---,0.33,VWS V14.00,2013-02-23 16:50:00,
2013-02-23 11:55:00,41.1,40.3,29.99,ENE,72,0.0,1.0,97,0.00,,---,0.33,VWS V14.00,2013-02-23 16:55:00,
2013-02-23 12:00:00,41.0,40.2,30.00,East,84,0.0,0.0,97,0.00,,---,0.33,VWS V14.00,2013-02-23 17:00:00,
2013-02-23 12:05:00,41.0,40.2,29.99,East,84,0.0,1.0,97,0.00,,---,0.33,VWS V14.00,2013-02-23 17:05:00,
2013-02-23 12:10:00,41.0,40.2,29.99,East,86,0.0,1.0,97,0.00,,---,0.33,VWS V14.00,2013-02-23 17:10:00,
2013-02-23 12:15:00,41.1,40.3,29.98,East,86,0.0,3.0,97,0.00,,---,0.33,VWS V14.00,2013-02-23 17:15:00,
2013-02-23 12:20:00,41.2,40.4,29.97,East,86,2.0,2.0,97,0.00,,---,0.33,VWS V14.00,2013-02-23 17:20:00,
2013-02-23 12:25:00,41.3,40.5,29.96,SE,137,2.0,5.0,97,0.00,,---,0.33,VWS V14.00,2013-02-23 17:25:00,
2013-02-23 12:30:00,41.6,40.8,29.96,SE,142,4.0,4.0,97,0.00,,---,0.33,VWS V14.00,2013-02-23 17:30:00,
2013-02-23 12:35:00,41.9,41.1,29.95,SE,142,1.0,1.0,97,0.00,,---,0.33,VWS V14.00,2013-02-23 17:35:00,
2013-02-23 12:40:00,42.0,41.2,29.95,SE,140,1.0,1.0,97,0.00,,---,0.33,VWS V14.00,2013-02-23 17:40:00,
2013-02-23 12:45:00,42.1,41.3,29.95,ENE,76,0.0,2.0,97,0.00,,---,0.33,VWS V14.00,2013-02-23 17:45:00,
2013-02-23 12:50:00,42.3,41.5,29.95,ENE,76,1.0,3.0,97,0.00,,---,0.33,VWS V14.00,2013-02-23 17:50:00,
2013-02-23 12:55:00,42.4,41.6,29.95,ENE,63,1.0,1.0,97,0.00,,---,0.33,VWS V14.00,2013-02-23 17:55:00,
2013-02-23 13:00:00,42.5,41.7,29.94,ESE,108,4.0,4.0,97,0.00,,---,0.33,VWS V14.00,2013-02-23 18:00:00,
2013-02-23 13:05:00,42.6,41.8,29.95,ESE,102,2.0,2.0,97,0.00,,---,0.33,VWS V14.00,2013-02-23 18:05:00,
2013-02-23 13:10:00,42.7,41.6,29.95,ESE,103,0.0,0.0,96,0.00,,---,0.33,VWS V14.00,2013-02-23 18:10:00,
2013-02-23 13:15:00,42.7,41.6,29.95,ESE,103,0.0,0.0,96,0.00,,---,0.33,VWS V14.00,2013-02-23 18:15:00,
2013-02-23 13:20:00,42.8,41.7,29.94,ESE,103,0.0,0.0,96,0.00,,---,0.33,VWS V14.00,2013-02-23 18:20:00,
2013-02-23 13:25:00,43.0,41.9,29.94,East,98,1.0,2.0,96,0.00,,---,0.33,VWS V14.00,2013-02-23 18:25:00,
2013-02-23 13:30:00,43.1,42.0,29.94,East,98,0.0,1.0,96,0.00,,---,0.33,VWS V14.00,2013-02-23 18:30:00,
2013-02-23 13:35:00,43.2,42.1,29.94,East,98,0.0,0.0,96,0.00,,---,0.33,VWS V14.00,2013-02-23 18:35:00,
2013-02-23 13:40:00,43.3,42.2,29.94,East,98,0.0,0.0,96,0.00,,---,0.33,VWS V14.00,2013-02-23 18:40:00,
2013-02-23 13:45:00,43.4,42.3,29.94,East,98,0.0,0.0,96,0.00,,---,0.33,VWS V14.00,2013-02-23 18:45:00,
2013-02-23 13:50:00,43.5,42.2,29.94,East,98,0.0,0.0,95,0.00,,---,0.33,VWS V14.00,2013-02-23 18:50:00,
2013-02-23 13:55:00,43.6,42.5,29.94,East,98,0.0,0.0,96,0.00,,---,0.33,VWS V14.00,2013-02-23 18:55:00,
2013-02-23 14:00:00,43.7,42.6,29.94,East,98,0.0,0.0,96,0.00,,---,0.33,VWS V14.00,2013-02-23 19:00:00,
2013-02-23 14:05:00,43.8,42.5,29.94,East,98,0.0,0.0,95,0.00,,---,0.33,VWS V14.00,2013-02-23 19:05:00,
2013-02-23 14:10:00,43.8,42.5,29.94,East,98,0.0,0.0,95,0.00,,---,0.33,VWS V14.00,2013-02-23 19:10:00,
2013-02-23 14:15:00,43.8,42.5,29.94,East,98,0.0,0.0,95,0.00,,---,0.33,VWS V14.00,2013-02-23 19:15:00,
2013-02-23 14:20:00,44.0,42.7,29.94,East,98,0.0,0.0,95,0.00,,---,0.33,VWS V14.00,2013-02-23 19:20:00,
2013-02-23 14:25:00,44.0,42.7,29.94,East,98,0.0,0.0,95,0.00,,---,0.33,VWS V14.00,2013-02-23 19:25:00,
2013-02-23 14:30:00,44.1,42.8,29.93,East,98,0.0,1.0,95,0.00,,---,0.33,VWS V14.00,2013-02-23 19:30:00,
2013-02-23 14:35:00,44.2,42.6,29.92,East,98,0.0,0.0,94,0.00,,---,0.33,VWS V14.00,2013-02-23 19:35:00,
2013-02-23 14:40:00,44.2,42.6,29.93,East,98,0.0,0.0,94,0.00,,---,0.33,VWS V14.00,2013-02-23 19:40:00,
2013-02-23 14:45:00,44.2,42.6,29.93,East,98,0.0,0.0,94,0.00,,---,0.33,VWS V14.00,2013-02-23 19:45:00,
2013-02-23 14:50:00,44.2,42.6,29.93,East,98,0.0,0.0,94,0.00,,---,0.33,VWS V14.00,2013-02-23 19:50:00,
2013-02-23 14:55:00,44.3,43.0,29.93,East,98,0.0,0.0,95,0.00,,---,0.33,VWS V14.00,2013-02-23 19:55:00,
2013-02-23 15:00:00,44.4,42.8,29.93,East,98,0.0,0.0,94,0.00,,---,0.33,VWS V14.00,2013-02-23 20:00:00,
2013-02-23 15:05:00,44.5,42.9,29.93,East,98,0.0,0.0,94,0.00,,---,0.33,VWS V14.00,2013-02-23 20:05:00,
2013-02-23 15:10:00,44.4,42.8,29.93,East,98,5.0,5.0,94,0.00,,---,0.33,VWS V14.00,2013-02-23 20:10:00,
2013-02-23 15:15:00,44.5,42.9,29.93,East,98,0.0,0.0,94,0.00,,---,0.33,VWS V14.00,2013-02-23 20:15:00,
2013-02-23 15:20:00,44.6,43.0,29.92,East,98,0.0,0.0,94,0.00,,---,0.33,VWS V14.00,2013-02-23 20:20:00,
2013-02-23 15:25:00,44.7,43.1,29.92,East,98,0.0,0.0,94,0.00,,---,0.33,VWS V14.00,2013-02-23 20:25:00,
2013-02-23 15:30:00,44.6,43.0,29.92,East,98,0.0,1.0,94,0.00,,---,0.33,VWS V14.00,2013-02-23 20:30:00,
2013-02-23 15:35:00,44.6,43.0,29.92,NE,51,0.0,0.0,94,0.00,,---,0.33,VWS V14.00,2013-02-23 20:35:00,
2013-02-23 15:40:00,44.7,43.1,29.92,NE,51,0.0,0.0,94,0.00,,---,0.33,VWS V14.00,2013-02-23 20:40:00,
2013-02-23 15:45:00,44.7,43.1,29.93,NE,51,0.0,3.0,94,0.00,,---,0.33,VWS V14.00,2013-02-23 20:45:00,
2013-02-23 15:50:00,44.8,43.2,29.92,NE,51,0.0,2.0,94,0.00,,---,0.33,VWS V14.00,2013-02-23 20:50:00,
2013-02-23 15:55:00,44.8,43.2,29.92,NE,51,0.0,0.0,94,0.00,,---,0.33,VWS V14.00,2013-02-23 20:55:00,
2013-02-23 16:00:00,44.8,43.2,29.92,NE,51,0.0,0.0,94,0.00,,---,0.33,VWS V14.00,2013-02-23 21:00:00,
2013-02-23 16:05:00,44.9,43.3,29.92,NE,51,0.0,0.0,94,0.00,,---,0.33,VWS V14.00,2013-02-23 21:05:00,
2013-02-23 16:10:00,44.9,43.3,29.92,NE,51,0.0,0.0,94,0.00,,---,0.33,VWS V14.00,2013-02-23 21:10:00,
2013-02-23 16:15:00,45.0,43.4,29.91,NE,51,0.0,1.0,94,0.00,,---,0.33,VWS V14.00,2013-02-23 21:15:00,
2013-02-23 16:20:00,45.1,43.5,29.91,NE,51,0.0,0.0,94,0.00,,---,0.33,VWS V14.00,2013-02-23 21:20:00,
2013-02-23 16:25:00,45.1,43.5,29.90,NE,51,0.0,0.0,94,0.00,,---,0.33,VWS V14.00,2013-02-23 21:25:00,
2013-02-23 16:30:00,45.1,43.2,29.90,NE,51,0.0,0.0,93,0.00,,---,0.33,VWS V14.00,2013-02-23 21:30:00,
2013-02-23 16:35:00,45.1,43.5,29.91,NE,51,0.0,0.0,94,0.00,,---,0.33,VWS V14.00,2013-02-23 21:35:00,
2013-02-23 16:40:00,45.2,43.6,29.91,NE,51,0.0,0.0,94,0.00,,---,0.33,VWS V14.00,2013-02-23 21:40:00,
2013-02-23 16:45:00,45.2,43.6,29.91,NE,51,0.0,1.0,94,0.00,,---,0.33,VWS V14.00,2013-02-23 21:45:00,
2013-02-23 16:50:00,45.2,43.6,29.90,NE,51,0.0,0.0,94,0.00,,---,0.33,VWS V14.00,2013-02-23 21:50:00,
2013-02-23 16:55:00,45.2,43.6,29.90,NE,51,0.0,0.0,94,0.00,,---,0.33,VWS V14.00,2013-02-23 21:55:00,
2013-02-23 17:00:00,45.3,43.7,29.89,NE,51,0.0,0.0,94,0.00,,---,0.33,VWS V14.00,2013-02-23 22:00:00,
2013-02-23 17:05:00,45.4,43.8,29.89,NE,34,0.0,2.0,94,0.00,,---,0.33,VWS V14.00,2013-02-23 22:05:00,
2013-02-23 17:10:00,45.3,43.4,29.89,NNE,33,0.0,0.0,93,0.00,,---,0.33,VWS V14.00,2013-02-23 22:10:00,
2013-02-23 17:15:00,45.2,43.3,29.89,NNE,33,0.0,0.0,93,0.00,,---,0.33,VWS V14.00,2013-02-23 22:15:00,
2013-02-23 17:20:00,45.3,43.7,29.88,NNE,33,0.0,0.0,94,0.00,,---,0.33,VWS V14.00,2013-02-23 22:20:00,
2013-02-23 17:25:00,45.3,43.7,29.88,NNE,33,1.0,1.0,94,0.00,,---,0.33,VWS V14.00,2013-02-23 22:25:00,
2013-02-23 17:30:00,45.4,43.8,29.88,NE,37,0.0,0.0,94,0.00,,---,0.33,VWS V14.00,2013-02-23 22:30:00,
2013-02-23 17:35:00,45.2,43.3,29.88,NNE,31,0.0,0.0,93,0.00,,---,0.33,VWS V14.00,2013-02-23 22:35:00,
2013-02-23 17:40:00,45.2,43.6,29.88,NNE,31,0.0,0.0,94,0.00,,---,0.33,VWS V14.00,2013-02-23 22:40:00,
2013-02-23 17:45:00,45.2,43.6,29.88,NNE,31,0.0,0.0,94,0.00,,---,0.33,VWS V14.00,2013-02-23 22:45:00,
2013-02-23 17:50:00,45.1,43.2,29.88,NNE,31,0.0,0.0,93,0.00,,---,0.33,VWS V14.00,2013-02-23 22:50:00,
2013-02-23 17:55:00,45.1,43.5,29.88,NNE,31,0.0,0.0,94,0.00,,---,0.33,VWS V14.00,2013-02-23 22:55:00,
2013-02-23 18:00:00,45.1,43.5,29.87,NNE,31,0.0,0.0,94,0.00,,---,0.33,VWS V14.00,2013-02-23 23:00:00,
2013-02-23 18:05:00,45.0,43.4,29.86,NNE,31,0.0,0.0,94,0.00,,---,0.33,VWS V14.00,2013-02-23 23:05:00,
2013-02-23 18:10:00,44.9,43.3,29.87,NNE,31,0.0,0.0,94,0.00,,---,0.33,VWS V14.00,2013-02-23 23:10:00,
2013-02-23 18:15:00,44.8,43.2,29.87,NNE,31,0.0,0.0,94,0.00,,---,0.33,VWS V14.00,2013-02-23 23:15:00,
2013-02-23 18:20:00,44.7,43.1,29.87,NNE,31,0.0,0.0,94,0.00,,---,0.33,VWS V14.00,2013-02-23 23:20:00,
2013-02-23 18:25:00,44.6,43.0,29.87,NNE,31,0.0,0.0,94,0.00,,---,0.33,VWS V14.00,2013-02-23 23:25:00,
2013-02-23 18:30:00,44.6,43.0,29.87,NNE,31,0.0,0.0,94,0.00,,---,0.33,VWS V14.00,2013-02-23 23:30:00,
2013-02-23 18:35:00,44.5,42.9,29.88,NNE,31,0.0,0.0,94,0.00,,---,0.33,VWS V14.00,2013-02-23 23:35:00,
2013-02-23 18:40:00,44.4,42.8,29.87,NNE,31,0.0,0.0,94,0.00,,---,0.33,VWS V14.00,2013-02-23 23:40:00,
2013-02-23 18:45:00,44.3,43.0,29.87,NNE,31,0.0,0.0,95,0.00,,---,0.33,VWS V14.00,2013-02-23 23:45:00,
2013-02-23 18:50:00,44.3,43.0,29.88,NNE,31,0.0,0.0,95,0.00,,---,0.33,VWS V14.00,2013-02-23 23:50:00,
2013-02-23 18:55:00,44.3,43.0,29.88,NNE,31,0.0,0.0,95,0.00,,---,0.33,VWS V14.00,2013-02-23 23:55:00,
2013-02-23 19:00:00,44.2,42.9,29.88,NNE,31,0.0,0.0,95,0.00,,---,0.33,VWS V14.00,2013-02-24 00:00:00,
2013-02-23 19:05:00,44.2,42.9,29.89,NNE,31,0.0,0.0,95,0.00,,---,0.33,VWS V14.00,2013-02-24 00:05:00,
2013-02-23 19:10:00,44.2,42.9,29.89,NNE,31,0.0,0.0,95,0.00,,---,0.33,VWS V14.00,2013-02-24 00:10:00,
2013-02-23 19:15:00,44.1,42.8,29.88,NNE,31,0.0,0.0,95,0.00,,---,0.33,VWS V14.00,2013-02-24 00:15:00,
2013-02-23 19:20:00,44.1,42.8,29.88,NNE,31,0.0,0.0,95,0.00,,---,0.33,VWS V14.00,2013-02-24 00:20:00,
2013-02-23 19:25:00,44.0,42.7,29.89,NNE,31,0.0,0.0,95,0.00,,---,0.33,VWS V14.00,2013-02-24 00:25:00,
2013-02-23 19:30:00,44.0,42.7,29.89,NNE,31,0.0,0.0,95,0.00,,---,0.33,VWS V14.00,2013-02-24 00:30:00,
2013-02-23 19:35:00,44.0,42.7,29.89,NE,39,0.0,0.0,95,0.00,,---,0.33,VWS V14.00,2013-02-24 00:35:00,
2013-02-23 19:40:00,43.9,42.6,29.89,NE,39,0.0,0.0,95,0.00,,---,0.33,VWS V14.00,2013-02-24 00:40:00,
2013-02-23 19:46:00,43.9,42.8,29.89,NE,42,0.0,0.0,96,0.00,,---,0.33,VWS V14.00,2013-02-24 00:46:00,
2013-02-23 19:51:00,44.0,42.9,29.89,NE,42,0.0,1.0,96,0.00,,---,0.33,VWS V14.00,2013-02-24 00:51:00,
2013-02-23 19:56:00,44.0,42.9,29.89,NE,42,0.0,0.0,96,0.00,,---,0.33,VWS V14.00,2013-02-24 00:56:00,
2013-02-23 20:01:00,44.0,42.9,29.89,NE,42,0.0,0.0,96,0.00,,---,0.33,VWS V14.00,2013-02-24 01:01:00,
2013-02-23 20:06:00,44.0,42.9,29.88,NE,42,0.0,0.0,96,0.00,,---,0.33,VWS V14.00,2013-02-24 01:06:00,
2013-02-23 20:11:00,44.0,42.9,29.88,NE,42,0.0,0.0,96,0.00,,---,0.33,VWS V14.00,2013-02-24 01:11:00,
2013-02-23 20:16:00,44.0,42.9,29.88,NE,42,0.0,0.0,96,0.00,,---,0.33,VWS V14.00,2013-02-24 01:16:00,
2013-02-23 20:21:00,44.0,42.9,29.88,NE,42,0.0,0.0,96,0.00,,---,0.33,VWS V14.00,2013-02-24 01:21:00,
2013-02-23 20:26:00,44.1,43.0,29.87,NE,42,0.0,0.0,96,0.00,,---,0.33,VWS V14.00,2013-02-24 01:26:00,
2013-02-23 20:31:00,44.1,43.0,29.89,NE,42,0.0,0.0,96,0.00,,---,0.33,VWS V14.00,2013-02-24 01:31:00,
2013-02-23 20:36:00,44.1,43.0,29.89,NE,42,0.0,0.0,96,0.00,,---,0.33,VWS V14.00,2013-02-24 01:36:00,
2013-02-23 20:41:00,44.2,43.1,29.90,NE,42,0.0,0.0,96,0.00,,---,0.33,VWS V14.00,2013-02-24 01:41:00,
2013-02-23 20:46:00,44.2,43.1,29.89,NE,42,0.0,0.0,96,0.00,,---,0.33,VWS V14.00,2013-02-24 01:46:00,
2013-02-23 20:51:00,44.3,43.2,29.90,NE,42,0.0,0.0,96,0.00,,---,0.33,VWS V14.00,2013-02-24 01:51:00,
2013-02-23 20:56:00,44.3,43.2,29.89,NE,42,0.0,0.0,96,0.00,,---,0.33,VWS V14.00,2013-02-24 01:56:00,
2013-02-23 21:01:00,44.3,43.2,29.89,NE,42,0.0,0.0,96,0.00,,---,0.33,VWS V14.00,2013-02-24 02:01:00,
2013-02-23 21:06:00,44.3,43.2,29.88,NE,42,0.0,0.0,96,0.00,,---,0.33,VWS V14.00,2013-02-24 02:06:00,
2013-02-23 21:11:00,44.4,43.3,29.89,NE,42,0.0,0.0,96,0.00,,---,0.33,VWS V14.00,2013-02-24 02:11:00,
2013-02-23 21:16:00,44.4,43.3,29.88,NE,42,0.0,0.0,96,0.00,,---,0.33,VWS V14.00,2013-02-24 02:16:00,
2013-02-23 21:21:00,44.4,43.3,29.88,NE,42,0.0,0.0,96,0.00,,---,0.33,VWS V14.00,2013-02-24 02:21:00,
2013-02-23 21:26:00,44.4,43.3,29.88,NE,42,0.0,0.0,96,0.00,,---,0.33,VWS V14.00,2013-02-24 02:26:00,
2013-02-23 21:31:00,44.4,43.3,29.88,NE,42,0.0,0.0,96,0.00,,---,0.33,VWS V14.00,2013-02-24 02:31:00,
2013-02-23 21:36:00,44.4,43.3,29.89,NE,42,0.0,0.0,96,0.00,,---,0.33,VWS V14.00,2013-02-24 02:36:00,
2013-02-23 21:41:00,44.5,43.4,29.89,NE,42,0.0,0.0,96,0.00,,---,0.33,VWS V14.00,2013-02-24 02:41:00,
2013-02-23 21:46:00,44.5,43.4,29.89,NE,42,0.0,1.0,96,0.00,,---,0.33,VWS V14.00,2013-02-24 02:46:00,
2013-02-23 21:51:00,44.5,43.4,29.89,NE,42,0.0,0.0,96,0.00,,---,0.33,VWS V14.00,2013-02-24 02:51:00,
2013-02-23 21:56:00,44.5,43.4,29.89,NE,42,0.0,1.0,96,0.00,,---,0.33,VWS V14.00,2013-02-24 02:56:00,
2013-02-23 22:01:00,44.6,43.5,29.89,NE,42,0.0,0.0,96,0.00,,---,0.33,VWS V14.00,2013-02-24 03:01:00,
2013-02-23 22:06:00,44.6,43.5,29.89,NE,42,0.0,0.0,96,0.00,,---,0.33,VWS V14.00,2013-02-24 03:06:00,
2013-02-23 22:11:00,44.6,43.5,29.89,NE,42,0.0,0.0,96,0.00,,---,0.33,VWS V14.00,2013-02-24 03:11:00,
2013-02-23 22:16:00,44.6,43.5,29.88,NE,42,0.0,0.0,96,0.00,,---,0.33,VWS V14.00,2013-02-24 03:16:00,
2013-02-23 22:21:00,44.6,43.5,29.88,NE,42,0.0,0.0,96,0.00,,---,0.33,VWS V14.00,2013-02-24 03:21:00,
2013-02-23 22:26:00,44.7,43.6,29.88,NE,42,0.0,0.0,96,0.00,,---,0.33,VWS V14.00,2013-02-24 03:26:00,
2013-02-23 22:31:00,44.7,43.6,29.89,WNW,292,2.0,5.0,96,0.00,,---,0.33,VWS V14.00,2013-02-24 03:31:00,
2013-02-23 22:36:00,44.7,43.6,29.88,WNW,292,0.0,0.0,96,0.00,,---,0.33,VWS V14.00,2013-02-24 03:36:00,
2013-02-23 22:41:00,44.8,43.7,29.88,WNW,284,5.0,6.0,96,0.00,,---,0.33,VWS V14.00,2013-02-24 03:41:00,
2013-02-23 22:46:00,44.8,44.0,29.89,WNW,284,2.0,2.0,97,0.00,,---,0.33,VWS V14.00,2013-02-24 03:46:00,
2013-02-23 22:51:00,44.8,44.0,29.88,WNW,284,0.0,0.0,97,0.00,,---,0.33,VWS V14.00,2013-02-24 03:51:00,
2013-02-23 22:56:00,44.8,44.0,29.88,WNW,284,0.0,0.0,97,0.00,,---,0.33,VWS V14.00,2013-02-24 03:56:00,
2013-02-23 23:01:00,44.8,44.0,29.88,West,279,1.0,2.0,97,0.00,,---,0.33,VWS V14.00,2013-02-24 04:01:00,
2013-02-23 23:06:00,44.8,44.0,29.88,West,279,0.0,0.0,97,0.00,,---,0.33,VWS V14.00,2013-02-24 04:06:00,
2013-02-23 23:11:00,44.8,44.0,29.87,West,279,0.0,0.0,97,0.00,,---,0.33,VWS V14.00,2013-02-24 04:11:00,
2013-02-23 23:16:00,44.8,44.0,29.88,West,280,1.0,2.0,97,0.00,,---,0.33,VWS V14.00,2013-02-24 04:16:00,
2013-02-23 23:21:00,44.8,44.0,29.88,West,280,0.0,2.0,97,0.00,,---,0.33,VWS V14.00,2013-02-24 04:21:00,
2013-02-23 23:26:00,44.9,44.1,29.89,West,278,4.0,5.0,97,0.00,,---,0.33,VWS V14.00,2013-02-24 04:26:00,
2013-02-23 23:31:00,44.9,44.1,29.89,WSW,254,2.0,4.0,97,0.00,,---,0.33,VWS V14.00,2013-02-24 04:31:00,
2013-02-23 23:36:00,44.9,44.1,29.88,West,264,3.0,5.0,97,0.00,,---,0.33,VWS V14.00,2013-02-24 04:36:00,
2013-02-23 23:41:00,44.9,44.1,29.89,WSW,240,7.0,10.0,97,0.00,,---,0.33,VWS V14.00,2013-02-24 04:41:00,
2013-02-23 23:46:00,44.9,44.1,29.89,WSW,248,5.0,7.0,97,0.00,,---,0.33,VWS V14.00,2013-02-24 04:46:00,
2013-02-23 23:51:00,44.9,44.1,29.89,WSW,248,0.0,3.0,97,0.00,,---,0.33,VWS V14.00,2013-02-24 04:51:00,
2013-02-23 23:56:00,44.9,44.1,29.89,WNW,290,1.0,3.0,97,0.00,,---,0.33,VWS V14.00,2013-02-24 04:56:00,